createdAt,value
2023-03-23T15:58:39.855Z,14.10
2023-03-23T16:01:28.520Z,14.10
2023-03-23T16:04:07.512Z,14.10
2023-03-23T16:06:36.073Z,14.10
2023-03-23T16:09:04.710Z,14.10
2023-03-23T16:11:32.690Z,14.10
2023-03-23T16:14:00.352Z,14.10
2023-03-23T16:16:34.949Z,14.10
2023-03-23T16:19:01.957Z,14.10
2023-03-23T16:21:28.851Z,14.10
2023-03-23T16:23:56.664Z,14.00
2023-03-23T16:26:23.976Z,14.00
2023-03-23T16:28:53.296Z,14.00
2023-03-23T16:31:22.560Z,14.00
2023-03-23T16:33:49.464Z,13.90
2023-03-23T16:36:16.366Z,13.90
2023-03-23T16:38:49.112Z,13.90
2023-03-23T16:41:17.420Z,13.90
2023-03-23T16:43:44.338Z,13.80
2023-03-23T16:46:13.629Z,13.80
2023-03-23T16:48:40.687Z,13.60
2023-03-23T16:51:07.793Z,13.60
2023-03-23T16:53:34.673Z,13.50
2023-03-23T16:56:01.570Z,13.40
2023-03-23T16:58:28.374Z,13.40
2023-03-23T17:00:55.282Z,13.30
2023-03-23T17:03:22.701Z,13.30
2023-03-23T17:05:51.135Z,13.20
2023-03-23T17:08:19.148Z,13.20
2023-03-23T17:10:47.964Z,13.20
2023-03-23T17:13:14.836Z,13.20
2023-03-23T17:15:45.224Z,13.10
2023-03-23T17:18:14.892Z,13.00
2023-03-23T17:20:42.296Z,13.00
2023-03-23T17:23:09.124Z,12.90
2023-03-23T17:25:35.974Z,12.80
2023-03-23T17:28:17.485Z,12.80
2023-03-23T17:30:45.678Z,12.70
2023-03-23T17:33:13.464Z,12.70
2023-03-23T17:35:40.481Z,12.60
2023-03-23T17:38:07.361Z,12.60
2023-03-23T17:40:34.490Z,12.60
2023-03-23T17:43:01.436Z,12.50
2023-03-23T17:45:28.385Z,12.50
2023-03-23T17:47:55.413Z,12.50
2023-03-23T17:50:22.420Z,12.40
2023-03-23T17:52:49.982Z,12.40
2023-03-23T17:55:17.121Z,12.40
2023-03-23T17:57:44.898Z,12.40
2023-03-23T18:00:13.479Z,12.40
2023-03-23T18:02:40.991Z,12.40
2023-03-23T18:05:09.431Z,12.30
2023-03-23T18:07:37.101Z,12.30
2023-03-23T18:10:11.720Z,12.30
2023-03-23T18:12:40.637Z,12.40
2023-03-23T18:15:09.013Z,12.40
2023-03-23T18:17:36.156Z,12.40
2023-03-23T18:20:04.262Z,12.40
2023-03-23T18:22:31.203Z,12.40
2023-03-23T18:24:58.704Z,12.40
2023-03-23T18:27:26.314Z,12.40
2023-03-23T18:29:53.283Z,12.40
2023-03-23T18:32:20.760Z,12.40
2023-03-23T18:34:48.667Z,12.40
2023-03-23T18:37:16.119Z,12.40
2023-03-23T18:39:43.072Z,12.40
2023-03-23T18:42:11.926Z,12.40
2023-03-23T18:44:38.864Z,12.40
2023-03-23T18:47:06.129Z,12.30
2023-03-23T18:49:33.538Z,12.40
2023-03-23T18:52:00.582Z,12.40
2023-03-23T18:54:28.440Z,12.40
2023-03-23T18:56:55.997Z,12.30
2023-03-23T18:59:30.506Z,12.40
2023-03-23T19:01:57.969Z,12.40
2023-03-23T19:04:25.223Z,12.30
2023-03-23T19:06:52.066Z,12.30
2023-03-23T19:09:19.025Z,12.30
2023-03-23T19:11:47.221Z,12.30
2023-03-23T19:14:14.519Z,12.30
2023-03-23T19:16:42.164Z,12.30
2023-03-23T19:19:09.370Z,12.40
2023-03-23T19:21:38.277Z,12.40
2023-03-23T19:24:07.293Z,12.40
2023-03-23T19:26:38.281Z,12.40
2023-03-23T19:29:26.036Z,12.30
2023-03-23T19:31:55.710Z,12.30
2023-03-23T19:34:24.616Z,12.30
2023-03-23T19:36:56.191Z,12.30
2023-03-23T19:39:30.248Z,12.20
2023-03-23T19:41:57.256Z,12.20
2023-03-23T19:44:24.103Z,12.20
2023-03-23T19:46:51.626Z,12.10
2023-03-23T19:49:18.593Z,12.10
2023-03-23T19:51:45.419Z,12.10
2023-03-23T19:54:13.446Z,12.10
2023-03-23T19:56:40.608Z,12.10
2023-03-23T19:59:10.540Z,12.10
2023-03-23T20:01:37.894Z,12.00
2023-03-23T20:04:05.547Z,12.00
2023-03-23T20:06:34.137Z,11.90
2023-03-23T20:09:01.425Z,11.80
2023-03-23T20:11:29.467Z,11.80
2023-03-23T20:13:56.890Z,11.70
2023-03-23T20:16:24.853Z,11.70
2023-03-23T20:18:52.914Z,11.70
2023-03-23T20:21:22.839Z,11.60
2023-03-23T20:23:59.265Z,11.60
2023-03-23T20:26:32.229Z,11.60
2023-03-23T20:29:00.023Z,11.50
2023-03-23T20:31:29.864Z,11.50
2023-03-23T20:34:02.726Z,11.50
2023-03-23T20:36:34.800Z,11.50
2023-03-23T20:39:06.011Z,11.50
2023-03-23T20:41:36.198Z,11.50
2023-03-23T20:44:04.270Z,11.60
2023-03-23T20:46:32.004Z,11.60
2023-03-23T20:48:58.789Z,11.60
2023-03-23T20:51:25.699Z,11.70
2023-03-23T20:53:53.326Z,11.70
2023-03-23T20:56:20.410Z,11.70
2023-03-23T20:58:47.782Z,11.70
2023-03-23T21:01:15.336Z,11.70
2023-03-23T21:03:43.465Z,11.70
2023-03-23T21:06:10.841Z,11.60
2023-03-23T21:08:39.881Z,11.70
2023-03-23T21:11:09.792Z,11.70
2023-03-23T21:13:36.961Z,11.70
2023-03-23T21:16:05.129Z,11.70
2023-03-23T21:18:32.242Z,11.80
2023-03-23T21:21:00.324Z,11.70
2023-03-23T21:23:29.655Z,11.70
2023-03-23T21:26:06.103Z,11.80
2023-03-23T21:28:33.017Z,11.80
2023-03-23T21:31:07.477Z,11.80
2023-03-23T21:33:34.909Z,11.80
2023-03-23T21:36:02.456Z,11.90
2023-03-23T21:38:29.682Z,11.90
2023-03-23T21:40:58.997Z,11.90
2023-03-23T21:43:29.955Z,11.90
2023-03-23T21:45:59.396Z,12.00
2023-03-23T21:48:27.525Z,11.90
2023-03-23T21:50:54.559Z,12.00
2023-03-23T21:53:22.472Z,12.10
2023-03-23T21:55:54.593Z,12.10
2023-03-23T21:58:26.793Z,12.10
2023-03-23T22:00:54.696Z,12.20
2023-03-23T22:03:23.536Z,12.30
2023-03-23T22:05:54.658Z,12.30
2023-03-23T22:08:26.598Z,12.30
2023-03-23T22:11:00.956Z,12.30
2023-03-23T22:13:30.599Z,12.30
2023-03-23T22:15:58.991Z,12.40
2023-03-23T22:18:26.517Z,12.40
2023-03-23T22:20:53.732Z,12.40
2023-03-23T22:23:20.873Z,12.50
2023-03-23T22:25:47.900Z,12.50
2023-03-23T22:28:14.882Z,12.50
2023-03-23T22:30:41.685Z,12.50
2023-03-23T22:33:08.614Z,12.50
2023-03-23T22:35:36.005Z,12.50
2023-03-23T22:38:03.370Z,12.60
2023-03-23T22:40:33.384Z,12.50
2023-03-23T22:43:00.406Z,12.50
2023-03-23T22:45:28.144Z,12.50
2023-03-23T22:47:55.261Z,12.40
2023-03-23T22:50:24.269Z,12.40
2023-03-23T22:52:51.385Z,12.40
2023-03-23T22:55:18.338Z,12.30
2023-03-23T22:57:45.512Z,12.30
2023-03-23T23:00:18.672Z,12.20
2023-03-23T23:02:45.815Z,12.30
2023-03-23T23:05:13.429Z,12.30
2023-03-23T23:07:40.827Z,12.20
2023-03-23T23:10:08.044Z,12.20
2023-03-23T23:12:35.467Z,12.20
2023-03-23T23:15:04.802Z,12.20
2023-03-23T23:17:32.090Z,12.20
2023-03-23T23:20:00.406Z,12.20
2023-03-23T23:22:27.503Z,12.20
2023-03-23T23:24:54.575Z,12.20
2023-03-23T23:27:21.490Z,12.20
2023-03-23T23:29:48.301Z,12.20
2023-03-23T23:32:15.634Z,12.20
2023-03-23T23:34:42.530Z,12.10
2023-03-23T23:37:09.362Z,12.10
2023-03-23T23:39:38.389Z,12.10
2023-03-23T23:42:05.933Z,12.00
2023-03-23T23:44:32.793Z,12.00
2023-03-23T23:46:59.592Z,12.00
2023-03-23T23:49:27.764Z,12.10
2023-03-23T23:51:55.484Z,12.10
2023-03-23T23:54:30.365Z,12.10
2023-03-23T23:57:01.484Z,12.10
2023-03-23T23:59:29.086Z,12.10
